Time;durP1;ratioP1;P1;durP2;ratioP2;P2;SDS_P1;SDS_P2;PMS_P1;PMS_P2;Temp;Humidity;BMP_temperature;BMP_pressure;BME280_temperature;BME280_humidity;BME280_pressure;Samples;Min_cycle;Max_cycle;Signal;HPM_P1;HPM_P2
2022/07/12 00:02:19;;;;;;;4.20;2.38;;;15.80;88.90;;;;;;5069268;28;20021;-46
2022/07/12 00:04:45;;;;;;;6.10;3.40;;;15.80;88.90;;;;;;5051933;28;20483;-46
2022/07/12 00:07:11;;;;;;;4.35;3.47;;;15.80;88.90;;;;;;5069710;28;20035;-46
2022/07/12 00:09:36;;;;;;;4.05;2.50;;;15.90;89.00;;;;;;5051543;28;20483;-46
2022/07/12 00:12:02;;;;;;;3.60;2.80;;;15.80;88.90;;;;;;5069101;28;20495;-45
2022/07/12 00:14:28;;;;;;;3.45;2.75;;;15.80;88.80;;;;;;5069519;28;20353;-46
2022/07/12 00:16:54;;;;;;;4.55;3.47;;;15.80;88.90;;;;;;5069347;28;20036;-46
2022/07/12 00:19:19;;;;;;;4.72;2.72;;;15.80;89.00;;;;;;5051689;28;20029;-46
2022/07/12 00:21:47;;;;;;;4.15;2.63;;;15.80;89.00;;;;;;5069060;28;20025;-45
2022/07/12 00:24:15;;;;;;;3.47;2.58;;;15.80;89.00;;;;;;5069495;28;20105;-46
2022/07/12 00:26:41;;;;;;;4.53;2.58;;;15.80;89.00;;;;;;5069501;28;20049;-45
2022/07/12 00:29:07;;;;;;;2.88;2.22;;;15.80;88.90;;;;;;5069334;28;20047;-46
2022/07/12 00:31:32;;;;;;;5.28;2.47;;;15.80;88.90;;;;;;5051675;28;20032;-46
2022/07/12 00:34:00;;;;;;;4.30;2.60;;;15.80;88.90;;;;;;5069073;28;20032;-45
2022/07/12 00:36:26;;;;;;;3.97;2.58;;;15.80;88.90;;;;;;5069240;28;20039;-47
2022/07/12 00:38:52;;;;;;;3.78;2.50;;;15.70;88.90;;;;;;5069015;28;20457;-46
2022/07/12 00:41:18;;;;;;;4.05;2.63;;;15.80;88.90;;;;;;5068504;28;20029;-47
2022/07/12 00:43:43;;;;;;;3.85;2.38;;;15.70;88.80;;;;;;5068711;28;20221;-46
2022/07/12 00:46:14;;;;;;;5.05;2.28;;;15.70;88.80;;;;;;5068803;28;20489;-46
2022/07/12 00:48:40;;;;;;;5.15;2.63;;;15.70;88.70;;;;;;5050533;28;20032;-45
2022/07/12 00:51:06;;;;;;;6.25;2.90;;;15.70;88.70;;;;;;5069110;28;20058;-46
2022/07/12 00:53:32;;;;;;;9.43;3.55;;;15.70;88.70;;;;;;5069175;28;20025;-46
2022/07/12 00:55:58;;;;;;;5.38;2.58;;;15.70;88.70;;;;;;5051178;28;20020;-46
2022/07/12 00:58:27;;;;;;;3.40;2.17;;;15.70;88.70;;;;;;5068786;28;20477;-46
2022/07/12 01:00:58;;;;;;;3.35;2.53;;;15.80;88.70;;;;;;5068759;28;20035;-48
2022/07/12 01:03:24;;;;;;;2.53;1.50;;;15.80;88.50;;;;;;5068579;28;20033;-48
2022/07/12 01:05:51;;;;;;;3.83;1.80;;;15.70;88.50;;;;;;5068221;28;20129;-48
2022/07/12 01:08:17;;;;;;;2.85;1.58;;;15.70;88.30;;;;;;5068357;28;20043;-46
2022/07/12 01:10:44;;;;;;;3.17;2.17;;;15.70;88.30;;;;;;5068547;28;20056;-46
2022/07/12 01:13:10;;;;;;;4.32;2.50;;;15.70;88.20;;;;;;5068374;28;20035;-47
2022/07/12 01:15:37;;;;;;;4.05;1.75;;;15.70;88.30;;;;;;5067468;28;20377;-46
2022/07/12 01:18:06;;;;;;;5.25;2.63;;;15.70;88.30;;;;;;5068141;28;20414;-47
2022/07/12 01:20:32;;;;;;;3.72;2.35;;;15.60;88.30;;;;;;5051018;28;20049;-46
2022/07/12 01:22:59;;;;;;;4.38;2.00;;;15.60;88.40;;;;;;5068511;28;20025;-46
2022/07/12 01:25:25;;;;;;;3.97;1.85;;;15.60;88.30;;;;;;5050696;28;20020;-47
2022/07/12 01:27:51;;;;;;;4.68;2.00;;;15.60;88.30;;;;;;5060257;28;20033;-50
2022/07/12 01:30:20;;;;;;;4.07;2.17;;;15.50;88.30;;;;;;5058768;28;20036;-46
2022/07/12 01:32:46;;;;;;;3.15;1.90;;;15.50;88.40;;;;;;5034385;28;20047;-46
2022/07/12 01:35:13;;;;;;;2.90;1.90;;;15.40;88.50;;;;;;5068288;28;20024;-46
2022/07/12 01:37:41;;;;;;;2.50;1.63;;;15.50;88.60;;;;;;5068627;28;20032;-47
2022/07/12 01:40:12;;;;;;;4.00;1.55;;;15.40;88.60;;;;;;5064205;28;20032;-48
2022/07/12 01:42:38;;;;;;;4.30;2.20;;;15.40;88.60;;;;;;5067834;28;20049;-46
2022/07/12 01:45:06;;;;;;;2.60;1.48;;;15.40;88.60;;;;;;5084360;28;20638;-47
2022/07/12 01:47:32;;;;;;;2.78;1.70;;;15.40;88.50;;;;;;5068304;28;20036;-46
2022/07/12 01:49:58;;;;;;;2.45;1.67;;;15.40;88.50;;;;;;5068489;28;20446;-46
2022/07/12 01:52:25;;;;;;;3.75;1.67;;;15.40;88.50;;;;;;5050397;28;20572;-45
2022/07/12 01:54:51;;;;;;;2.38;1.48;;;15.40;88.60;;;;;;5068203;28;20032;-48
2022/07/12 01:57:16;;;;;;;2.80;1.63;;;15.50;88.70;;;;;;5068297;28;20193;-47
2022/07/12 01:59:45;;;;;;;4.40;2.40;;;15.50;88.60;;;;;;5070370;28;20055;-46
2022/07/12 02:02:11;;;;;;;5.65;3.00;;;15.50;88.50;;;;;;5053715;28;20085;-50
2022/07/12 02:04:37;;;;;;;4.47;3.10;;;15.40;88.70;;;;;;5072008;28;20024;-46
2022/07/12 02:07:06;;;;;;;6.30;4.72;;;15.50;88.70;;;;;;5054259;28;20033;-48
2022/07/12 02:09:32;;;;;;;5.17;3.97;;;15.40;88.80;;;;;;5071542;28;20024;-46
2022/07/12 02:11:57;;;;;;;5.38;4.13;;;15.40;88.90;;;;;;5071567;28;20028;-51
2022/07/12 02:14:24;;;;;;;5.82;4.35;;;15.50;89.00;;;;;;5071620;28;20025;-45
2022/07/12 02:16:49;;;;;;;4.78;3.92;;;15.50;89.00;;;;;;5071675;28;20024;-45
2022/07/12 02:19:15;;;;;;;9.57;5.55;;;15.50;89.10;;;;;;5071745;28;20337;-46
2022/07/12 02:21:43;;;;;;;9.10;6.05;;;15.50;89.10;;;;;;5071503;28;20027;-47
2022/07/12 02:24:09;;;;;;;5.78;4.47;;;15.50;89.10;;;;;;5071592;28;20029;-47
2022/07/12 02:26:36;;;;;;;6.43;5.18;;;15.50;89.10;;;;;;5071242;28;20437;-45
2022/07/12 02:29:03;;;;;;;6.55;4.95;;;15.50;89.20;;;;;;5054037;28;20031;-46
2022/07/12 02:31:31;;;;;;;5.97;4.70;;;15.50;89.20;;;;;;5070881;28;20039;-46
2022/07/12 02:33:57;;;;;;;8.05;5.38;;;15.40;89.20;;;;;;5070703;28;20111;-46
2022/07/12 02:36:23;;;;;;;5.68;4.82;;;15.50;89.30;;;;;;5070463;28;20040;-46
2022/07/12 02:38:51;;;;;;;6.53;4.53;;;15.50;89.20;;;;;;5070966;28;20038;-46
2022/07/12 02:41:19;;;;;;;4.85;4.25;;;15.50;89.20;;;;;;5070323;28;20043;-46
2022/07/12 02:43:45;;;;;;;5.10;4.40;;;15.40;89.20;;;;;;5070146;28;20045;-45
2022/07/12 02:46:13;;;;;;;8.68;5.28;;;15.40;89.10;;;;;;5052329;28;20080;-46
2022/07/12 02:48:39;;;;;;;5.70;3.90;;;15.40;89.10;;;;;;5070746;28;20031;-46
2022/07/12 02:51:06;;;;;;;4.60;2.92;;;15.40;89.00;;;;;;5070425;28;20052;-46
2022/07/12 02:53:33;;;;;;;4.00;2.75;;;15.40;89.00;;;;;;5070999;28;20032;-46
2022/07/12 02:55:59;;;;;;;3.60;2.90;;;15.30;89.00;;;;;;5053263;28;20020;-48
2022/07/12 02:58:28;;;;;;;5.15;3.58;;;15.40;89.00;;;;;;5036888;28;20033;-46
2022/07/12 03:00:53;;;;;;;5.43;3.72;;;15.30;89.10;;;;;;5053311;28;20024;-47
2022/07/12 03:03:19;;;;;;;5.28;4.20;;;15.40;89.00;;;;;;5053176;28;20047;-46
2022/07/12 03:05:48;;;;;;;4.40;3.15;;;15.40;89.00;;;;;;5063108;28;20021;-46
2022/07/12 03:08:14;;;;;;;4.07;3.08;;;15.40;89.00;;;;;;5070859;28;20040;-46
2022/07/12 03:10:39;;;;;;;3.60;2.83;;;15.40;89.00;;;;;;5069092;28;20362;-46
2022/07/12 03:13:06;;;;;;;4.75;3.90;;;15.40;89.00;;;;;;5070660;28;20020;-46
2022/07/12 03:15:32;;;;;;;5.30;4.20;;;15.40;89.00;;;;;;5070754;28;20468;-46
2022/07/12 03:18:01;;;;;;;5.85;4.05;;;15.40;89.00;;;;;;5039365;28;20077;-46
2022/07/12 03:20:32;;;;;;;6.28;4.35;;;15.40;88.90;;;;;;5058872;28;20028;-47
2022/07/12 03:22:58;;;;;;;4.57;3.10;;;15.30;88.90;;;;;;5052482;28;20116;-46
2022/07/12 03:25:24;;;;;;;4.15;2.65;;;15.30;89.00;;;;;;5070643;28;20131;-47
2022/07/12 03:27:50;;;;;;;4.85;3.97;;;15.30;88.90;;;;;;5086157;28;20028;-46
2022/07/12 03:30:16;;;;;;;4.43;3.30;;;15.30;88.80;;;;;;5070071;28;20346;-46
2022/07/12 03:32:44;;;;;;;5.15;3.70;;;15.30;88.90;;;;;;5069956;28;20036;-46
2022/07/12 03:35:10;;;;;;;4.55;3.45;;;15.30;89.00;;;;;;5070100;28;20031;-46
2022/07/12 03:37:51;;;;;;;5.22;3.80;;;15.30;89.00;;;;;;5070198;28;20043;-46
2022/07/12 03:40:20;;;;;;;4.68;3.95;;;15.30;89.10;;;;;;5052225;28;20052;-46
2022/07/12 03:42:46;;;;;;;4.68;3.47;;;15.30;89.10;;;;;;5069324;28;20063;-46
2022/07/12 03:45:13;;;;;;;4.07;2.83;;;15.30;89.00;;;;;;5069639;28;20089;-46
2022/07/12 03:47:39;;;;;;;6.75;3.50;;;15.20;88.90;;;;;;5062100;28;20048;-47
2022/07/12 03:50:08;;;;;;;3.97;2.92;;;15.20;88.90;;;;;;5069966;28;20449;-46
2022/07/12 03:52:34;;;;;;;5.55;3.28;;;15.20;88.90;;;;;;5051683;28;20029;-45
2022/07/12 03:55:03;;;;;;;4.18;3.30;;;15.20;88.90;;;;;;5069437;28;20116;-46
2022/07/12 03:57:31;;;;;;;3.55;2.60;;;15.20;89.00;;;;;;5069750;28;20115;-46
2022/07/12 03:59:59;;;;;;;5.32;3.33;;;15.20;88.90;;;;;;5052090;28;20119;-46
2022/07/12 04:02:27;;;;;;;4.30;2.83;;;15.20;88.80;;;;;;5051700;28;20024;-46
2022/07/12 04:04:53;;;;;;;3.28;2.42;;;15.20;88.90;;;;;;5069624;28;20040;-46
2022/07/12 04:07:19;;;;;;;5.55;3.35;;;15.20;88.80;;;;;;5069382;28;20357;-46
2022/07/12 04:09:45;;;;;;;4.15;3.00;;;15.20;88.90;;;;;;5069776;28;20345;-46
2022/07/12 04:12:10;;;;;;;4.53;3.53;;;15.20;89.00;;;;;;5069182;28;20112;-46
2022/07/12 04:14:36;;;;;;;5.85;4.35;;;15.10;88.90;;;;;;5051910;28;20465;-46
2022/07/12 04:17:02;;;;;;;4.80;4.10;;;15.20;88.90;;;;;;5069067;28;20078;-46
2022/07/12 04:19:28;;;;;;;5.53;5.03;;;15.20;89.00;;;;;;5051613;28;20361;-45
2022/07/12 04:21:55;;;;;;;6.03;5.05;;;15.10;88.90;;;;;;5051614;28;20025;-45
2022/07/12 04:24:22;;;;;;;4.70;4.18;;;15.10;89.10;;;;;;5068771;28;20032;-45
2022/07/12 04:26:48;;;;;;;7.65;5.18;;;15.10;89.10;;;;;;5051702;28;20024;-45
2022/07/12 04:29:15;;;;;;;5.50;4.60;;;15.20;89.10;;;;;;5069455;28;20357;-46
2022/07/12 04:31:41;;;;;;;6.40;4.45;;;15.20;89.10;;;;;;5074766;28;20020;-47
2022/07/12 04:34:09;;;;;;;5.03;4.13;;;15.20;89.10;;;;;;5064323;28;20033;-46
2022/07/12 04:36:35;;;;;;;4.40;3.85;;;15.20;89.10;;;;;;5058118;28;20112;-46
2022/07/12 04:39:00;;;;;;;4.97;4.45;;;15.20;89.10;;;;;;5069396;28;20403;-46
2022/07/12 04:41:28;;;;;;;4.13;3.50;;;15.10;89.00;;;;;;5068478;28;20051;-47
2022/07/12 04:43:54;;;;;;;4.40;4.00;;;15.00;89.10;;;;;;5068541;28;20060;-47
2022/07/12 04:46:19;;;;;;;5.28;4.20;;;15.10;89.30;;;;;;5068570;28;20040;-46
2022/07/12 04:48:45;;;;;;;5.28;4.43;;;15.10;89.10;;;;;;5056917;28;20051;-46
2022/07/12 04:51:11;;;;;;;5.20;4.18;;;15.00;89.20;;;;;;5051154;28;20115;-46
2022/07/12 04:53:36;;;;;;;4.10;3.45;;;15.00;89.20;;;;;;5068690;28;20039;-46
2022/07/12 04:56:02;;;;;;;5.20;4.20;;;15.00;89.30;;;;;;5068500;28;20029;-46
2022/07/12 04:58:28;;;;;;;4.95;4.07;;;15.10;89.30;;;;;;5068531;28;20492;-46
2022/07/12 05:00:53;;;;;;;4.10;3.22;;;15.10;89.20;;;;;;5068426;28;20033;-46
2022/07/12 05:03:19;;;;;;;3.90;3.47;;;15.10;89.30;;;;;;5068091;28;20025;-46
2022/07/12 05:05:45;;;;;;;4.65;3.35;;;15.10;89.20;;;;;;5068177;28;20028;-46
2022/07/12 05:08:10;;;;;;;6.15;4.70;;;15.10;89.30;;;;;;5067924;28;20365;-46
2022/07/12 05:10:38;;;;;;;7.38;5.13;;;15.20;89.30;;;;;;5067990;28;20033;-46
2022/07/12 05:13:05;;;;;;;6.05;3.90;;;15.20;89.30;;;;;;5067792;28;20051;-46
2022/07/12 05:15:32;;;;;;;5.45;4.80;;;15.20;89.40;;;;;;5068016;28;20025;-46
2022/07/12 05:17:58;;;;;;;6.38;4.05;;;15.20;89.30;;;;;;5068289;28;20024;-46
2022/07/12 05:20:24;;;;;;;5.30;4.50;;;15.30;89.50;;;;;;5050526;28;20564;-46
2022/07/12 05:22:49;;;;;;;4.28;3.08;;;15.30;89.30;;;;;;5068339;28;20032;-46
2022/07/12 05:25:15;;;;;;;5.63;4.38;;;15.40;89.30;;;;;;5068811;28;20028;-46
2022/07/12 05:27:44;;;;;;;7.32;4.82;;;15.40;89.10;;;;;;5050917;28;20059;-47
2022/07/12 05:30:10;;;;;;;4.72;4.05;;;15.40;89.10;;;;;;5050923;28;20445;-46
2022/07/12 05:32:38;;;;;;;4.25;3.65;;;15.60;89.20;;;;;;5050474;28;20033;-46
2022/07/12 05:35:04;;;;;;;5.07;4.15;;;15.70;89.10;;;;;;5071155;28;20024;-47
2022/07/12 05:37:30;;;;;;;6.07;4.97;;;15.70;88.80;;;;;;5072273;28;20441;-47
2022/07/12 05:39:58;;;;;;;5.55;4.43;;;15.80;88.60;;;;;;5072366;28;20031;-46
2022/07/12 05:42:26;;;;;;;5.32;4.80;;;15.80;88.60;;;;;;5071676;28;20028;-46
2022/07/12 05:44:53;;;;;;;5.95;5.35;;;15.80;88.40;;;;;;5072281;28;20063;-47
2022/07/12 05:47:19;;;;;;;6.85;5.10;;;15.80;88.30;;;;;;5072219;28;20028;-47
2022/07/12 05:49:44;;;;;;;6.32;5.28;;;15.80;88.30;;;;;;5071960;28;20465;-49
2022/07/12 05:54:54;;;;;;;6.88;4.68;;;15.80;88.50;;;;;;5071576;28;20357;-49
2022/07/12 05:57:20;;;;;;;3.63;3.13;;;15.80;88.40;;;;;;5071562;28;20020;-46
2022/07/12 05:59:46;;;;;;;4.72;4.07;;;15.90;88.50;;;;;;5071359;28;20048;-48
2022/07/12 06:02:13;;;;;;;6.40;4.65;;;15.90;88.60;;;;;;5071018;28;20032;-49
2022/07/12 06:04:40;;;;;;;8.13;4.72;;;15.90;88.30;;;;;;5070810;28;20043;-49
2022/07/12 06:07:06;;;;;;;8.35;4.82;;;15.90;88.30;;;;;;5071679;28;20020;-47
2022/07/12 06:09:31;;;;;;;6.93;5.50;;;15.90;88.20;;;;;;5071081;28;20039;-46
2022/07/12 06:11:57;;;;;;;6.93;6.22;;;15.90;88.10;;;;;;5071274;28;20039;-46
2022/07/12 06:14:25;;;;;;;6.50;5.03;;;16.00;87.90;;;;;;5053387;28;20044;-47
2022/07/12 06:16:51;;;;;;;5.75;4.68;;;15.90;87.90;;;;;;5070965;28;20031;-46
2022/07/12 06:19:16;;;;;;;4.30;3.70;;;15.90;88.00;;;;;;5035266;28;20339;-46
2022/07/12 06:21:42;;;;;;;6.47;5.00;;;15.90;88.20;;;;;;5071013;28;20044;-46
2022/07/12 06:24:07;;;;;;;6.80;5.90;;;15.90;88.00;;;;;;5070907;28;20029;-46
2022/07/12 06:26:33;;;;;;;5.63;4.80;;;15.90;88.10;;;;;;5053350;28;20048;-46
2022/07/12 06:28:59;;;;;;;4.43;3.53;;;15.90;88.20;;;;;;5071316;28;20101;-46
2022/07/12 06:31:26;;;;;;;4.85;4.35;;;15.90;88.40;;;;;;5071150;28;20032;-46
2022/07/12 06:33:52;;;;;;;6.38;4.70;;;16.00;88.10;;;;;;5071287;28;20064;-46
2022/07/12 06:36:19;;;;;;;4.78;3.92;;;15.90;87.80;;;;;;5071282;28;20460;-46
2022/07/12 06:38:46;;;;;;;5.10;4.38;;;16.00;88.10;;;;;;5071152;28;20044;-45
2022/07/12 06:41:13;;;;;;;3.90;3.42;;;16.00;87.70;;;;;;5068158;28;20078;-46
2022/07/12 06:43:40;;;;;;;5.55;4.93;;;16.10;87.90;;;;;;5069205;28;20068;-48
2022/07/12 06:46:09;;;;;;;5.60;4.07;;;16.10;87.60;;;;;;5069661;28;20077;-45
2022/07/12 06:48:35;;;;;;;4.47;3.83;;;16.20;87.80;;;;;;5071060;28;20021;-45
2022/07/12 06:51:02;;;;;;;4.65;3.20;;;16.20;87.40;;;;;;5071206;28;20042;-45
2022/07/12 06:53:29;;;;;;;5.07;3.97;;;16.40;87.50;;;;;;5070619;28;20060;-47
2022/07/12 06:55:57;;;;;;;3.40;2.63;;;16.50;87.00;;;;;;5071095;28;20028;-47
2022/07/12 06:58:23;;;;;;;4.95;4.45;;;16.60;87.10;;;;;;5070983;28;20016;-45
2022/07/12 07:00:54;;;;;;;5.88;4.20;;;16.60;86.00;;;;;;5071244;28;20031;-46
2022/07/12 07:03:21;;;;;;;3.95;3.25;;;16.50;86.20;;;;;;5070808;28;20032;-46
2022/07/12 07:05:48;;;;;;;4.70;3.85;;;16.50;86.20;;;;;;5066087;28;20345;-45
2022/07/12 07:08:15;;;;;;;6.38;4.07;;;16.60;86.70;;;;;;5069984;28;20036;-46
2022/07/12 07:10:42;;;;;;;5.22;3.95;;;16.60;86.30;;;;;;5070805;28;20025;-46
2022/07/12 07:13:10;;;;;;;3.88;3.30;;;16.60;86.10;;;;;;5070486;28;20035;-45
2022/07/12 07:15:40;;;;;;;4.20;3.42;;;16.70;86.40;;;;;;5070619;28;20017;-46
2022/07/12 07:18:08;;;;;;;3.90;2.72;;;16.80;85.80;;;;;;5070535;28;20024;-46
2022/07/12 07:20:34;;;;;;;4.07;2.75;;;16.90;86.10;;;;;;5069892;28;20033;-46
2022/07/12 07:23:00;;;;;;;3.55;2.67;;;17.10;85.30;;;;;;5069497;28;20065;-46
2022/07/12 07:25:25;;;;;;;3.35;2.30;;;17.20;85.10;;;;;;5069651;28;20036;-48
2022/07/12 07:27:51;;;;;;;3.92;2.55;;;17.40;84.70;;;;;;5035446;28;20029;-46
2022/07/12 07:33:01;;;;;;;5.28;3.58;;;17.60;84.70;;;;;;5050053;28;20044;-47
2022/07/12 07:35:29;;;;;;;4.75;2.88;;;17.70;83.60;;;;;;5056709;28;20012;-47
2022/07/12 07:37:54;;;;;;;3.60;3.00;;;17.80;83.50;;;;;;5069583;28;20036;-47
2022/07/12 07:40:20;;;;;;;4.22;3.22;;;17.90;83.40;;;;;;5068911;28;20400;-46
2022/07/12 07:42:46;;;;;;;4.95;3.58;;;17.90;83.10;;;;;;5051332;28;20061;-48
2022/07/12 07:45:12;;;;;;;4.32;3.22;;;17.90;82.70;;;;;;5069098;28;20142;-46
2022/07/12 07:47:48;;;;;;;3.90;3.20;;;18.10;82.60;;;;;;5069328;28;20159;-47
2022/07/12 07:50:14;;;;;;;4.10;3.05;;;18.10;82.20;;;;;;5069533;28;20035;-47
2022/07/12 07:52:40;;;;;;;6.05;3.90;;;18.20;82.40;;;;;;5051305;28;20033;-47
2022/07/12 07:55:06;;;;;;;2.88;2.30;;;18.20;82.20;;;;;;5051862;28;20082;-47
2022/07/12 07:57:39;;;;;;;3.85;2.95;;;18.40;82.50;;;;;;5052078;28;20090;-46
2022/07/12 08:00:05;;;;;;;5.18;2.78;;;18.60;80.90;;;;;;5069288;28;20028;-47
2022/07/12 08:02:33;;;;;;;3.35;2.60;;;18.60;80.60;;;;;;5069445;28;20472;-48
2022/07/12 08:04:59;;;;;;;5.07;3.40;;;18.70;81.10;;;;;;5069467;28;20057;-46
2022/07/12 08:07:25;;;;;;;4.05;3.33;;;18.90;80.10;;;;;;5068878;28;20028;-46
2022/07/12 08:09:51;;;;;;;4.78;3.00;;;18.80;79.90;;;;;;5068826;28;20060;-46
2022/07/12 08:12:16;;;;;;;3.08;2.03;;;18.90;80.30;;;;;;5068494;28;20028;-47
2022/07/12 08:14:42;;;;;;;3.50;2.45;;;19.10;80.10;;;;;;5068765;28;20024;-46
2022/07/12 08:17:07;;;;;;;3.97;2.78;;;19.40;79.80;;;;;;5068588;28;20342;-47
2022/07/12 08:19:33;;;;;;;5.88;2.47;;;19.40;78.70;;;;;;5051081;28;20024;-47
2022/07/12 08:22:01;;;;;;;3.15;2.20;;;19.40;78.40;;;;;;5050863;28;20438;-46
2022/07/12 08:24:27;;;;;;;3.60;1.88;;;19.40;78.60;;;;;;5068345;28;20038;-46
2022/07/12 08:26:55;;;;;;;3.30;2.03;;;19.60;78.90;;;;;;5068720;28;20031;-47
2022/07/12 08:29:21;;;;;;;3.97;2.30;;;19.90;79.10;;;;;;5068573;28;20071;-48
2022/07/12 08:31:47;;;;;;;2.90;1.80;;;20.10;77.90;;;;;;5068466;28;20032;-47
2022/07/12 08:34:14;;;;;;;4.20;2.70;;;20.10;77.90;;;;;;5051214;28;20043;-46
2022/07/12 08:36:42;;;;;;;3.40;2.00;;;20.00;76.30;;;;;;5050867;28;20052;-47
2022/07/12 08:39:08;;;;;;;3.67;2.30;;;20.50;77.50;;;;;;5068381;28;20032;-46
2022/07/12 08:41:40;;;;;;;3.00;2.10;;;20.90;75.90;;;;;;5068105;28;20028;-47
2022/07/12 08:44:06;;;;;;;3.20;2.38;;;21.00;75.60;;;;;;5068487;28;20045;-47
2022/07/12 08:46:34;;;;;;;5.28;2.47;;;21.20;74.60;;;;;;5068668;28;20503;-47
2022/07/12 08:49:07;;;;;;;3.42;2.30;;;21.20;74.40;;;;;;5050944;28;20115;-47
2022/07/12 08:51:33;;;;;;;3.88;2.30;;;21.10;75.00;;;;;;5068793;28;20024;-47
2022/07/12 08:54:12;;;;;;;4.50;2.28;;;21.40;75.30;;;;;;5065860;28;20029;-46
2022/07/12 08:56:40;;;;;;;3.17;2.40;;;21.80;73.20;;;;;;5050774;28;20352;-47
2022/07/12 08:59:12;;;;;;;2.50;1.80;;;21.90;71.30;;;;;;5068962;28;20017;-47
2022/07/12 09:01:43;;;;;;;3.75;1.67;;;22.20;71.90;;;;;;5050891;28;20031;-49
2022/07/12 09:04:27;;;;;;;2.47;2.08;;;22.90;71.10;;;;;;5068560;28;20083;-47
2022/07/12 09:06:53;;;;;;;3.10;2.10;;;23.50;68.30;;;;;;5068762;28;20437;-51
2022/07/12 09:09:34;;;;;;;3.15;1.98;;;23.70;68.20;;;;;;5068297;28;20024;-47
2022/07/12 09:12:00;;;;;;;3.40;1.50;;;23.60;67.40;;;;;;5068539;28;20048;-47
2022/07/12 09:14:31;;;;;;;3.25;2.75;;;24.10;68.10;;;;;;5068436;28;20068;-49
2022/07/12 09:17:12;;;;;;;2.28;1.85;;;24.10;67.50;;;;;;5068673;28;20021;-47
2022/07/12 09:19:38;;;;;;;2.70;1.90;;;24.10;66.00;;;;;;5067981;28;20036;-48
2022/07/12 09:22:16;;;;;;;3.00;1.95;;;24.30;66.60;;;;;;5068637;28;20036;-47
2022/07/12 09:24:42;;;;;;;3.00;2.17;;;24.30;67.00;;;;;;5051162;28;20368;-45
2022/07/12 09:27:08;;;;;;;3.35;2.10;;;24.40;66.20;;;;;;5068529;28;20036;-45
2022/07/12 09:29:47;;;;;;;3.15;2.20;;;24.40;66.70;;;;;;5068454;28;20044;-50
2022/07/12 09:37:49;;;;;;;1.85;1.40;;;24.00;68.80;;;;;;5068555;28;20040;-50
2022/07/12 09:40:15;;;;;;;2.80;1.70;;;24.10;66.20;;;;;;5050582;28;20028;-51
2022/07/12 09:42:41;;;;;;;4.03;2.15;;;24.40;65.30;;;;;;5068115;28;20087;-46
2022/07/12 09:45:09;;;;;;;4.45;2.42;;;24.40;64.50;;;;;;5068318;28;20029;-49
2022/07/12 09:47:35;;;;;;;2.78;1.80;;;24.30;65.00;;;;;;5068334;28;20109;-46
2022/07/12 09:50:01;;;;;;;2.17;1.65;;;24.10;67.50;;;;;;5068410;28;20104;-46
2022/07/12 09:52:32;;;;;;;3.33;1.42;;;24.00;67.60;;;;;;5067872;28;20028;-47
2022/07/12 09:55:00;;;;;;;2.42;1.30;;;24.00;67.30;;;;;;5068469;28;20047;-47
2022/07/12 09:57:27;;;;;;;1.70;1.07;;;24.20;66.30;;;;;;5068092;28;20072;-48
2022/07/12 09:59:54;;;;;;;2.28;1.45;;;24.20;66.80;;;;;;5067928;28;20623;-48
2022/07/12 10:02:22;;;;;;;1.67;1.15;;;24.40;64.60;;;;;;5068311;28;20033;-47
2022/07/12 10:04:48;;;;;;;3.28;1.20;;;24.40;65.30;;;;;;5067561;28;20046;-46
2022/07/12 10:07:16;;;;;;;3.50;1.50;;;24.60;65.90;;;;;;5067801;28;20481;-48
2022/07/12 10:09:47;;;;;;;2.15;1.40;;;24.90;64.80;;;;;;5067353;28;20109;-50
2022/07/12 10:12:16;;;;;;;1.60;1.10;;;25.10;65.70;;;;;;5067524;28;20035;-46
2022/07/12 10:14:43;;;;;;;;;;;25.10;64.90;;;;;;5049802;28;20032;-45
2022/07/12 10:17:10;;;;;;;1.80;0.90;;;25.00;64.90;;;;;;5067130;28;19908;-47
2022/07/12 10:19:36;;;;;;;3.33;1.15;;;24.90;65.80;;;;;;5067474;28;20035;-45
2022/07/12 10:22:04;;;;;;;3.63;0.93;;;24.70;65.90;;;;;;5069513;28;20123;-48
2022/07/12 10:24:33;;;;;;;1.58;1.00;;;24.50;64.50;;;;;;5071130;28;20450;-45
2022/07/12 10:27:14;;;;;;;0.90;0.60;;;24.30;65.60;;;;;;5070811;28;20372;-46
2022/07/12 10:29:48;;;;;;;1.35;0.90;;;24.10;66.10;;;;;;5061014;28;20102;-49
2022/07/12 10:32:34;;;;;;;1.45;0.98;;;23.90;66.60;;;;;;5057656;28;20036;-45
2022/07/12 10:35:08;;;;;;;3.35;1.45;;;23.80;68.10;;;;;;5053701;28;20043;-47
2022/07/12 10:37:37;;;;;;;2.35;1.10;;;23.60;68.20;;;;;;5054421;28;20430;-46
2022/07/12 10:40:14;;;;;;;1.42;0.80;;;23.50;69.20;;;;;;5071207;28;20040;-46
2022/07/12 10:43:01;;;;;;;2.30;1.00;;;23.40;67.80;;;;;;5070551;28;20037;-46
2022/07/12 10:45:38;;;;;;;1.33;0.60;;;23.40;69.30;;;;;;5071190;28;20024;-47
2022/07/12 10:48:15;;;;;;;1.92;1.13;;;23.70;68.90;;;;;;5084398;28;20482;-45
2022/07/12 10:50:48;;;;;;;1.38;0.82;;;23.70;67.10;;;;;;5071129;28;20025;-47
2022/07/12 10:53:25;;;;;;;1.45;1.02;;;23.90;69.90;;;;;;5059762;28;20122;-45
2022/07/12 10:56:08;;;;;;;1.73;1.02;;;24.10;66.70;;;;;;5071114;28;20020;-45
2022/07/12 10:59:00;;;;;;;1.33;0.75;;;24.40;68.00;;;;;;5071013;28;20016;-45
2022/07/12 11:01:27;;;;;;;2.42;1.10;;;24.40;69.00;;;;;;5071072;28;20388;-45
2022/07/12 11:04:06;;;;;;;1.88;1.08;;;24.60;66.90;;;;;;5070839;28;20021;-48
2022/07/12 11:06:36;;;;;;;3.95;1.83;;;24.90;65.70;;;;;;5070891;28;20369;-46
2022/07/12 11:09:03;;;;;;;;;;;25.20;64.70;;;;;;5071612;28;20032;-46
2022/07/12 11:11:32;;;;;;;1.52;0.88;;;25.20;63.90;;;;;;5070797;28;19930;-46
2022/07/12 11:14:01;;;;;;;1.65;1.00;;;25.40;65.60;;;;;;5069691;28;20459;-46
2022/07/12 11:16:29;;;;;;;1.40;0.98;;;25.60;66.40;;;;;;5070664;28;20028;-47
2022/07/12 11:18:57;;;;;;;2.05;1.00;;;25.70;65.60;;;;;;5054094;28;20119;-45
2022/07/12 11:21:24;;;;;;;1.63;1.02;;;25.60;64.40;;;;;;5052703;28;20064;-46
2022/07/12 11:23:51;;;;;;;2.53;1.23;;;25.80;63.40;;;;;;5070469;28;20453;-47
2022/07/12 11:26:17;;;;;;;1.33;0.70;;;26.10;63.90;;;;;;5070661;28;20078;-46
2022/07/12 11:28:47;;;;;;;2.25;1.00;;;25.90;63.10;;;;;;5070273;28;20043;-46
2022/07/12 11:31:17;;;;;;;1.38;0.80;;;25.90;62.40;;;;;;5069632;28;20036;-45
2022/07/12 11:33:45;;;;;;;1.58;1.10;;;25.90;62.80;;;;;;5070228;28;20876;-46
2022/07/12 11:36:14;;;;;;;2.35;0.90;;;25.60;62.80;;;;;;5070424;28;20029;-45
2022/07/12 11:38:41;;;;;;;1.90;1.25;;;25.40;63.20;;;;;;5070254;28;20021;-47
2022/07/12 11:41:08;;;;;;;2.38;1.58;;;25.40;62.70;;;;;;5069494;28;20449;-46
2022/07/12 11:43:36;;;;;;;3.00;1.65;;;25.30;64.20;;;;;;5068975;28;20064;-45
2022/07/12 11:46:03;;;;;;;1.92;1.10;;;25.10;65.30;;;;;;5069689;28;20028;-51
2022/07/12 11:48:32;;;;;;;1.98;1.20;;;25.10;64.40;;;;;;5067789;28;20104;-47
2022/07/12 11:51:03;;;;;;;1.90;1.38;;;25.40;67.20;;;;;;5067346;28;20036;-49
2022/07/12 11:53:30;;;;;;;1.83;1.05;;;25.60;64.20;;;;;;5069353;28;20052;-47
2022/07/12 11:56:00;;;;;;;1.77;1.15;;;25.80;65.60;;;;;;5070160;28;20353;-48
2022/07/12 11:58:27;;;;;;;1.80;0.73;;;25.80;62.80;;;;;;5069777;28;20021;-50
2022/07/12 12:00:54;;;;;;;1.45;0.60;;;26.00;62.60;;;;;;5051626;28;20346;-48
2022/07/12 12:03:24;;;;;;;1.65;0.70;;;25.90;60.80;;;;;;5069347;28;20434;-50
2022/07/12 12:05:52;;;;;;;1.58;0.75;;;25.90;61.80;;;;;;5068934;28;20025;-49
2022/07/12 12:08:18;;;;;;;2.22;1.25;;;25.70;62.30;;;;;;5051564;28;20066;-45
2022/07/12 12:10:57;;;;;;;1.67;1.10;;;25.30;62.10;;;;;;5051840;28;20028;-49
2022/07/12 12:13:24;;;;;;;1.05;0.75;;;25.20;62.80;;;;;;5069148;28;20028;-47
2022/07/12 12:15:56;;;;;;;2.05;0.85;;;25.30;65.20;;;;;;5069402;28;20016;-47
2022/07/12 12:18:39;;;;;;;3.53;1.33;;;25.50;65.60;;;;;;5069437;28;20512;-46
2022/07/12 12:21:07;;;;;;;1.60;0.90;;;25.40;63.50;;;;;;5069293;28;20017;-46
2022/07/12 12:23:36;;;;;;;2.67;1.20;;;25.30;63.00;;;;;;5051652;28;20446;-47
2022/07/12 12:26:15;;;;;;;1.50;0.68;;;25.30;62.80;;;;;;5069162;28;20111;-46
2022/07/12 12:28:50;;;;;;;2.40;0.75;;;25.60;64.70;;;;;;5069388;28;20146;-46
2022/07/12 12:31:22;;;;;;;1.67;1.17;;;25.60;63.00;;;;;;5034725;28;20037;-45
2022/07/12 12:33:52;;;;;;;1.33;0.73;;;25.30;63.70;;;;;;5035892;28;20032;-47
2022/07/12 12:36:26;;;;;;;1.13;0.60;;;25.50;64.50;;;;;;5068889;28;20021;-45
2022/07/12 12:38:54;;;;;;;1.48;0.60;;;25.50;67.70;;;;;;5068609;28;20092;-45
2022/07/12 12:41:24;;;;;;;1.33;0.70;;;25.50;62.90;;;;;;5068224;28;20040;-46
2022/07/12 12:44:01;;;;;;;1.17;0.65;;;25.40;62.50;;;;;;5067676;28;20294;-45
2022/07/12 12:47:40;;;;;;;2.67;0.90;;;25.20;63.80;;;;;;5068614;28;20326;-45
2022/07/12 12:49:51;;;;;;;1.27;0.60;;;25.00;62.80;;;;;;5059950;28;20051;-45
2022/07/12 12:52:17;;;;;;;6.55;1.20;;;24.90;63.00;;;;;;5065449;28;20035;-46
2022/07/12 12:54:44;;;;;;;2.28;1.10;;;24.80;62.70;;;;;;5069054;28;20491;-45
2022/07/12 12:57:11;;;;;;;4.90;1.40;;;24.60;63.70;;;;;;5051267;28;20035;-45
2022/07/12 12:59:37;;;;;;;5.38;1.58;;;24.50;64.20;;;;;;5069131;28;20346;-46
2022/07/12 13:02:04;;;;;;;3.80;1.40;;;24.50;64.70;;;;;;5069091;28;20032;-46
2022/07/12 13:04:37;;;;;;;3.00;1.50;;;24.50;65.60;;;;;;5054231;28;20041;-47